| time (UTC) | temp C | wind direction | speed KPH | gust KPH | rain 1hr cm | rain 24hr cm | rain mn cm | humidity % | barometer mb |
| 20260503072742 | 15 | 110 | 3.2 | 0.0 | 0.00 | 0.00 | 0.00 | 10 | 1017.0 |
| 20260503071341 | 15 | 110 | 3.2 | 0.0 | 0.00 | 0.00 | 0.00 | 10 | 1017.0 |
| 20260503060337 | 15 | 0 | 1.6 | 0.0 | 0.00 | 0.00 | 0.00 | 10 | 1017.0 |
| 20260503054936 | 15 | 0 | 1.6 | 0.0 | 0.00 | 0.00 | 0.00 | 10 | 1017.0 |
| 20260503053536 | 15 | 0 | 1.6 | 0.0 | 0.00 | 0.00 | 0.00 | 10 | 1017.0 |
| 20260503052135 | 15 | 0 | 1.6 | 0.0 | 0.00 | 0.00 | 0.00 | 10 | 1018.0 |
| 20260503050735 | 15 | 0 | 1.6 | 0.0 | 0.00 | 0.00 | 0.00 | 10 | 1018.0 |
| 20260503045332 | 15 | 0 | 3.2 | 0.0 | 0.00 | 0.00 | 0.00 | 10 | 1018.0 |
| 20260503043932 | 15 | 0 | 3.2 | 0.0 | 0.00 | 0.00 | 0.00 | 10 | 1018.0 |
| 20260503042530 | 15 | 0 | 3.2 | 0.0 | 0.00 | 0.00 | 0.00 | 10 | 1018.0 |
| 20260503041129 | 15 | 0 | 3.2 | 0.0 | 0.00 | 0.00 | 0.00 | 10 | 1018.0 |
| 20260503035727 | 15 | 0 | 3.2 | 0.0 | 0.00 | 0.00 | 0.00 | 10 | 1018.0 |
| 20260503034324 | 15 | 0 | 3.2 | 0.0 | 0.00 | 0.00 | 0.00 | 10 | 1018.0 |
| 20260503032924 | 12 | 290 | 12.9 | 0.0 | 0.00 | 0.00 | 0.00 | 93 | 1018.0 |
| 20260503031523 | 12 | 290 | 12.9 | 0.0 | 0.00 | 0.00 | 0.00 | 93 | 1018.0 |
| 20260503030122 | 12 | 290 | 12.9 | 0.0 | 0.00 | 0.00 | 0.00 | 93 | 1018.0 |
| 20260503024720 | 12 | 290 | 12.9 | 0.0 | 0.00 | 0.00 | 0.00 | 93 | 1018.0 |
| 20260503023320 | 12 | 290 | 12.9 | 0.0 | 0.00 | 0.00 | 0.00 | 93 | 1018.0 |
| 20260503021919 | 12 | 290 | 12.9 | 0.0 | 0.00 | 0.00 | 0.00 | 93 | 1017.0 |
| 20260503020518 | 12 | 290 | 12.9 | 0.0 | 0.00 | 0.00 | 0.00 | 93 | 1017.0 |
| 20260503015116 | 12 | 290 | 12.9 | 0.0 | 0.00 | 0.00 | 0.00 | 93 | 1017.0 |
| 20260503013716 | 12 | 290 | 12.9 | 0.0 | 0.00 | 0.00 | 0.00 | 93 | 1017.0 |
| 20260503012315 | 12 | 290 | 12.9 | 0.0 | 0.00 | 0.00 | 0.00 | 93 | 1016.0 |
| 20260503010915 | 12 | 290 | 12.9 | 0.0 | 0.00 | 0.00 | 0.00 | 93 | 1016.0 |
| 20260503005514 | 12 | 290 | 12.9 | 0.0 | 0.00 | 0.00 | 0.00 | 93 | 1016.0 |
| 20260503004114 | 12 | 290 | 12.9 | 0.0 | 0.00 | 0.00 | 0.00 | 93 | 1016.0 |
| 20260503002713 | 13 | 290 | 12.9 | 0.0 | 0.00 | 0.00 | 0.00 | 93 | 1015.0 |
| 20260503001310 | 13 | 290 | 12.9 | 0.0 | 0.00 | 0.00 | 0.00 | 93 | 1015.0 |
| 20260502235908 | 13 | 290 | 12.9 | 0.0 | 0.00 | 0.00 | 0.00 | 93 | 1015.0 |
| 20260502234506 | 13 | 290 | 12.9 | 0.0 | 0.00 | 0.00 | 0.00 | 93 | 1015.0 |
| 20260502233105 | 13 | 290 | 12.9 | 0.0 | 0.00 | 0.00 | 0.00 | 93 | 1015.0 |
| 20260502231700 | 13 | 290 | 12.9 | 0.0 | 0.00 | 0.00 | 0.00 | 93 | 1015.0 |
| 20260502230258 | 13 | 290 | 12.9 | 0.0 | 0.00 | 0.00 | 0.00 | 93 | 1015.0 |
| 20260502224857 | 13 | 290 | 12.9 | 0.0 | 0.00 | 0.00 | 0.00 | 93 | 1015.0 |
| 20260502223456 | 13 | 290 | 12.9 | 0.0 | 0.00 | 0.00 | 0.00 | 93 | 1014.0 |
| 20260502222055 | 13 | 290 | 12.9 | 0.0 | 0.00 | 0.00 | 0.00 | 93 | 1014.0 |
| 20260502220653 | 13 | 290 | 12.9 | 0.0 | 0.00 | 0.00 | 0.00 | 93 | 1014.0 |
| 20260502215252 | 13 | 290 | 12.9 | 0.0 | 0.03 | 0.00 | 0.00 | 93 | 1014.0 |
| 20260502213849 | 14 | 290 | 12.9 | 0.0 | 0.00 | 0.00 | 0.00 | 93 | 1014.0 |
| 20260502212450 | 15 | 290 | 12.9 | 0.0 | 0.00 | 0.00 | 0.00 | 92 | 1013.0 |
| 20260502211048 | 15 | 290 | 12.9 | 0.0 | 0.00 | 0.00 | 0.00 | 92 | 1013.0 |
| 20260502205648 | 15 | 290 | 12.9 | 0.0 | 0.00 | 0.00 | 0.00 | 91 | 1013.0 |
| 20260502204246 | 15 | 290 | 12.9 | 0.0 | 0.00 | 0.00 | 0.00 | 90 | 1013.0 |
| 20260502202845 | 15 | 290 | 12.9 | 0.0 | 0.00 | 0.00 | 0.00 | 87 | 1013.0 |
| 20260502201445 | 15 | 290 | 12.9 | 0.0 | 0.00 | 0.00 | 0.00 | 86 | 1013.0 |
| 20260502200035 | 15 | 290 | 12.9 | 0.0 | 0.00 | 0.00 | 0.00 | 83 | 1013.0 |
| 20260502194634 | 15 | 290 | 12.9 | 0.0 | 0.00 | 0.00 | 0.00 | 82 | 1013.0 |
| 20260502193234 | 15 | 290 | 12.9 | 0.0 | 0.00 | 0.00 | 0.00 | 81 | 1013.0 |
| 20260502191834 | 15 | 290 | 12.9 | 0.0 | 0.00 | 0.00 | 0.00 | 81 | 1014.0 |
| 20260502190433 | 15 | 290 | 12.9 | 0.0 | 0.00 | 0.00 | 0.00 | 81 | 1014.0 |
| 20260502185032 | 15 | 290 | 12.9 | 0.0 | 0.00 | 0.00 | 0.00 | 81 | 1014.0 |
| 20260502183631 | 15 | 290 | 12.9 | 0.0 | 0.00 | 0.00 | 0.00 | 81 | 1014.0 |
| 20260502182231 | 15 | 290 | 12.9 | 0.0 | 0.00 | 0.00 | 0.00 | 81 | 1014.0 |
| 20260502180829 | 15 | 290 | 12.9 | 0.0 | 0.00 | 0.00 | 0.00 | 81 | 1014.0 |
| 20260502163021 | 16 | 310 | 8.0 | 0.0 | 0.00 | 0.00 | 0.00 | 77 | 1016.0 |
| 20260502161620 | 16 | 310 | 8.0 | 0.0 | 0.00 | 0.00 | 0.00 | 77 | 1016.0 |
| 20260502160218 | 16 | 310 | 8.0 | 0.0 | 0.00 | 0.00 | 0.00 | 77 | 1016.0 |
| 20260502152015 | 16 | 0 | 1.6 | 0.0 | 0.00 | 0.00 | 0.00 | 77 | 1015.0 |
| 20260502150614 | 16 | 0 | 1.6 | 0.0 | 0.00 | 0.00 | 0.00 | 77 | 1015.0 |
| 20260502123159 | 15 | 110 | 4.8 | 0.0 | 0.00 | 0.00 | 0.00 | 87 | 1016.0 |
| 20260502121758 | 15 | 110 | 4.8 | 0.0 | 0.00 | 0.00 | 0.00 | 87 | 1016.0 |
| 20260502120358 | 15 | 120 | 4.8 | 0.0 | 0.00 | 0.00 | 0.00 | 86 | 1016.0 |
| 20260502114957 | 15 | 120 | 4.8 | 0.0 | 0.00 | 0.00 | 0.00 | 86 | 1016.0 |
| 20260502113556 | 15 | 120 | 4.8 | 0.0 | 0.00 | 0.00 | 0.00 | 86 | 1016.0 |
| 20260502112155 | 15 | 120 | 4.8 | 0.0 | 0.00 | 0.00 | 0.00 | 85 | 1016.0 |
| 20260502110754 | 15 | 120 | 4.8 | 0.0 | 0.00 | 0.00 | 0.00 | 84 | 1016.0 |
| 20260502105352 | 16 | 120 | 4.8 | 0.0 | 0.00 | 0.00 | 0.00 | 82 | 1016.0 |
| 20260502103948 | 16 | 120 | 4.8 | 0.0 | 0.00 | 0.00 | 0.00 | 82 | 1016.0 |
| 20260502102547 | 16 | 120 | 4.8 | 0.0 | 0.00 | 0.00 | 0.00 | 82 | 1015.0 |
| 20260502101147 | 16 | 120 | 4.8 | 0.0 | 0.00 | 0.00 | 0.00 | 82 | 1015.0 |
| 20260502090144 | 11 | 90 | 6.4 | 0.0 | 0.00 | 0.00 | 0.00 | 82 | 1015.0 |